createdAt,value
2023-01-09T00:00:30.451Z,7
2023-01-09T00:07:08.462Z,6.9
2023-01-09T00:07:20.799Z,6.9
2023-01-09T00:08:32.097Z,7
2023-01-09T00:09:19.448Z,6.8
2023-01-09T00:10:34.778Z,6.8
2023-01-09T00:11:24.174Z,6.8
2023-01-09T00:12:33.080Z,6.8
2023-01-09T00:13:19.670Z,6.8
2023-01-09T00:14:34.725Z,6.8
2023-01-09T00:15:19.819Z,6.8
2023-01-09T00:16:35.892Z,6.7
2023-01-09T00:17:19.975Z,6.7
2023-01-09T00:18:39.549Z,6.8
2023-01-09T00:19:20.102Z,6.7
2023-01-09T00:20:37.763Z,6.8
2023-01-09T00:21:22.685Z,6.8
2023-01-09T00:22:40.689Z,6.7
2023-01-09T00:23:22.587Z,6.7
2023-01-09T00:24:39.123Z,6.6
2023-01-09T00:25:23.949Z,6.6
2023-01-09T00:26:38.787Z,6.7
2023-01-09T00:27:25.288Z,6.7
2023-01-09T00:28:41.156Z,6.6
2023-01-09T00:29:24.092Z,6.5
2023-01-09T00:30:42.125Z,6.5
2023-01-09T00:31:37.824Z,6.6
2023-01-09T00:32:43.238Z,6.6
2023-01-09T00:33:21.141Z,6.5
2023-01-09T00:34:21.695Z,6.6
2023-01-09T00:35:21.296Z,6.5
2023-01-09T00:36:27.371Z,6.6
2023-01-09T00:37:22.330Z,6.5
2023-01-09T00:38:43.649Z,6.5
2023-01-09T00:39:21.624Z,6.5
2023-01-09T00:40:22.279Z,6.5
2023-01-09T00:41:32.036Z,6.5
2023-01-09T00:42:21.860Z,6.5
2023-01-09T00:43:21.875Z,6.5
2023-01-09T00:44:22.052Z,6.5
2023-01-09T00:45:22.117Z,6.5
2023-01-09T00:46:22.267Z,6.5
2023-01-09T00:47:22.194Z,6.4
2023-01-09T00:48:22.533Z,6.4
2023-01-09T00:49:24.905Z,6.4
2023-01-09T00:50:46.016Z,6.5
2023-01-09T00:51:32.602Z,6.4
2023-01-09T00:52:23.379Z,6.4
2023-01-09T00:53:22.608Z,6.4
2023-01-09T00:54:22.705Z,6.4
2023-01-09T00:55:25.979Z,6.4
2023-01-09T00:56:22.829Z,6.5
2023-01-09T00:57:22.908Z,6.5
2023-01-09T00:58:22.959Z,6.6
2023-01-09T00:59:23.007Z,6.5
2023-01-09T01:00:23.067Z,6.5
2023-01-09T01:01:28.195Z,6.6
2023-01-09T01:02:23.543Z,6.5
2023-01-09T01:03:23.261Z,6.5
2023-01-09T01:04:24.760Z,6.5
2023-01-09T01:05:23.385Z,6.5
2023-01-09T01:06:23.461Z,6.5
2023-01-09T01:07:25.658Z,6.5
2023-01-09T01:08:23.565Z,6.4
2023-01-09T01:09:23.615Z,6.5
2023-01-09T01:10:24.136Z,6.5
2023-01-09T01:11:23.766Z,6.5
2023-01-09T01:12:23.855Z,6.5
2023-01-09T01:13:26.800Z,6.4
2023-01-09T01:14:23.942Z,6.4
2023-01-09T01:15:24.020Z,6.3
2023-01-09T01:16:26.221Z,6.3
2023-01-09T01:17:24.192Z,6.4
2023-01-09T01:18:24.275Z,6.4
2023-01-09T01:19:27.897Z,6.4
2023-01-09T01:20:24.454Z,6.4
2023-01-09T01:21:24.499Z,6.4
2023-01-09T01:22:24.805Z,6.5
2023-01-09T01:23:24.592Z,6.5
2023-01-09T01:24:24.668Z,6.5
2023-01-09T01:25:29.770Z,6.5
2023-01-09T01:26:24.855Z,6.6
2023-01-09T01:27:24.891Z,6.5
2023-01-09T01:28:27.830Z,6.5
2023-01-09T01:29:25.046Z,6.5
2023-01-09T01:30:25.107Z,6.5
2023-01-09T01:31:25.162Z,6.4
2023-01-09T01:32:25.234Z,6.5
2023-01-09T01:33:25.370Z,6.4
2023-01-09T01:34:28.292Z,6.5
2023-01-09T01:35:25.471Z,6.6
2023-01-09T01:36:25.563Z,6.5
2023-01-09T01:37:37.078Z,6.4
2023-01-09T01:38:25.747Z,6.4
2023-01-09T01:39:25.791Z,6.4
2023-01-09T01:40:30.007Z,6.4
2023-01-09T01:41:25.971Z,6.5
2023-01-09T01:42:26.081Z,6.4
2023-01-09T01:43:31.301Z,6.3
2023-01-09T01:44:26.223Z,6.3
2023-01-09T01:45:26.365Z,6.3
2023-01-09T01:46:31.517Z,6.3
2023-01-09T01:47:26.461Z,6.3
2023-01-09T01:48:26.521Z,6.3
2023-01-09T01:49:36.635Z,6.4
2023-01-09T01:50:26.655Z,6.4
2023-01-09T01:51:26.797Z,6.3
2023-01-09T01:52:34.703Z,6.3
2023-01-09T01:53:26.919Z,6.3
2023-01-09T01:54:27.019Z,6.3
2023-01-09T01:55:35.738Z,6.2
2023-01-09T01:56:27.131Z,6.2
2023-01-09T01:57:27.226Z,6.2
2023-01-09T01:58:39.549Z,6.2
2023-01-09T01:59:27.362Z,6.3
2023-01-09T02:00:27.468Z,6.4
2023-01-09T02:01:40.543Z,6.3
2023-01-09T02:02:27.734Z,6.3
2023-01-09T02:03:27.746Z,6.4
2023-01-09T02:04:41.791Z,6.3
2023-01-09T02:05:27.862Z,6.3
2023-01-09T02:06:27.979Z,6.4
2023-01-09T02:07:44.092Z,6.4
2023-01-09T02:08:28.093Z,6.3
2023-01-09T02:09:28.168Z,6.3
2023-01-09T02:10:44.465Z,6.3
2023-01-09T02:11:28.237Z,6.3
2023-01-09T02:12:28.320Z,6.3
2023-01-09T02:13:44.016Z,6.4
2023-01-09T02:14:28.440Z,6.5
2023-01-09T02:15:28.479Z,6.4
2023-01-09T02:16:45.394Z,6.4
2023-01-09T02:17:28.671Z,6.4
2023-01-09T02:18:28.721Z,6.3
2023-01-09T02:19:55.385Z,6.3
2023-01-09T02:20:28.866Z,6.3
2023-01-09T02:21:29.995Z,6.4
2023-01-09T02:22:55.682Z,6.4
2023-01-09T02:23:29.033Z,6.3
2023-01-09T02:24:29.110Z,6.3
2023-01-09T02:26:04.671Z,6.3
2023-01-09T02:26:33.938Z,6.3
2023-01-09T02:27:29.317Z,6.3
2023-01-09T02:29:07.582Z,6.2
2023-01-09T02:29:32.667Z,6.3
2023-01-09T02:30:29.545Z,6.3
2023-01-09T02:31:32.927Z,6.3
2023-01-09T02:32:33.325Z,6.3
2023-01-09T02:33:33.366Z,6.3
2023-01-09T02:34:29.870Z,6.3
2023-01-09T02:35:42.987Z,6.3
2023-01-09T02:36:30.044Z,6.3
2023-01-09T02:37:41.277Z,6.5
2023-01-09T02:38:30.154Z,6.5
2023-01-09T02:39:41.151Z,6.4
2023-01-09T02:40:30.323Z,6.3
2023-01-09T02:41:45.902Z,6.4
2023-01-09T02:42:30.484Z,6.3
2023-01-09T02:43:45.165Z,6.3
2023-01-09T02:44:30.587Z,6.3
2023-01-09T02:45:45.717Z,6.4
2023-01-09T02:46:30.951Z,6.4
2023-01-09T02:47:51.390Z,6.3
2023-01-09T02:48:30.885Z,6.3
2023-01-09T02:49:52.222Z,6.4
2023-01-09T02:50:32.686Z,6.4
2023-01-09T02:51:51.383Z,6.4
2023-01-09T02:52:31.055Z,6.3
2023-01-09T02:53:36.296Z,6.4
2023-01-09T02:54:31.125Z,6.5
2023-01-09T02:55:31.204Z,6.6
2023-01-09T02:56:41.866Z,6.5
2023-01-09T02:57:31.365Z,6.5
2023-01-09T02:58:31.363Z,6.5
2023-01-09T02:59:40.459Z,6.5
2023-01-09T03:00:31.553Z,6.4
2023-01-09T03:01:31.659Z,6.5
2023-01-09T03:02:58.407Z,6.5
2023-01-09T03:03:31.695Z,6.5
2023-01-09T03:04:31.754Z,6.5
2023-01-09T03:05:45.517Z,6.3
2023-01-09T03:06:31.811Z,6.3
2023-01-09T03:07:31.909Z,6.3
2023-01-09T03:08:55.073Z,6.3
2023-01-09T03:09:32.044Z,6.3
2023-01-09T03:10:32.082Z,6.3
2023-01-09T03:12:08.298Z,6.2
2023-01-09T03:12:49.843Z,6.2
2023-01-09T03:13:32.254Z,6.3
2023-01-09T03:14:57.423Z,6.3
2023-01-09T03:15:32.369Z,6.3
2023-01-09T03:16:32.459Z,6.3
2023-01-09T03:17:55.931Z,6.3
2023-01-09T03:18:32.573Z,6.3
2023-01-09T03:19:32.582Z,6.4
2023-01-09T03:21:04.588Z,6.3
2023-01-09T03:21:32.706Z,6.3
2023-01-09T03:22:37.027Z,6.1
2023-01-09T03:24:04.745Z,6.2
2023-01-09T03:24:32.839Z,6.2
2023-01-09T03:25:32.849Z,6.2
2023-01-09T03:26:38.434Z,6.3
2023-01-09T03:27:32.973Z,6.3
2023-01-09T03:28:34.182Z,6.3
2023-01-09T03:29:33.150Z,6.2
2023-01-09T03:30:57.892Z,6.1
2023-01-09T03:31:33.265Z,6.3
2023-01-09T03:32:39.615Z,6.3
2023-01-09T03:34:29.355Z,6.3
2023-01-09T03:35:02.196Z,6.3
2023-01-09T03:35:33.453Z,6.2
2023-01-09T03:36:44.796Z,6.1
2023-01-09T03:37:33.633Z,6.1
2023-01-09T03:38:33.879Z,6.1
2023-01-09T03:40:35.921Z,6.1
2023-01-09T03:40:36.084Z,6
2023-01-09T03:41:33.950Z,6.1
2023-01-09T03:42:45.347Z,6.1
2023-01-09T03:43:49.009Z,6
2023-01-09T03:44:34.119Z,5.9
2023-01-09T03:46:21.453Z,5.9
2023-01-09T03:46:34.203Z,6.1
2023-01-09T03:47:34.243Z,5.9
2023-01-09T03:48:34.326Z,5.8
2023-01-09T03:49:34.514Z,5.8
2023-01-09T03:50:34.462Z,5.8
2023-01-09T03:51:34.510Z,5.8
2023-01-09T03:52:42.324Z,5.9
2023-01-09T03:53:34.650Z,5.9
2023-01-09T03:54:43.195Z,5.9
2023-01-09T03:55:54.565Z,5.9
2023-01-09T03:56:52.690Z,6
2023-01-09T03:57:34.900Z,6
2023-01-09T03:59:22.074Z,5.9
2023-01-09T03:59:35.056Z,6
2023-01-09T04:00:42.825Z,5.9
2023-01-09T04:01:57.149Z,6
2023-01-09T04:02:42.586Z,5.9
2023-01-09T04:03:35.351Z,5.8
2023-01-09T04:04:43.083Z,6
2023-01-09T04:05:35.571Z,6
2023-01-09T04:06:53.899Z,5.9
2023-01-09T04:07:57.468Z,5.9
2023-01-09T04:08:48.283Z,6
2023-01-09T04:09:35.736Z,5.9
2023-01-09T04:10:55.765Z,5.9
2023-01-09T04:11:35.887Z,5.8
2023-01-09T04:12:35.981Z,5.9
2023-01-09T04:13:56.401Z,5.9
2023-01-09T04:14:36.120Z,5.8
2023-01-09T04:15:36.141Z,5.8
2023-01-09T04:17:05.454Z,5.8
2023-01-09T04:17:36.285Z,5.8
2023-01-09T04:18:36.359Z,5.7
2023-01-09T04:20:01.635Z,5.7
2023-01-09T04:20:36.514Z,5.7
2023-01-09T04:21:36.599Z,5.7
2023-01-09T04:23:04.004Z,5.8
2023-01-09T04:23:36.734Z,5.7
2023-01-09T04:24:36.848Z,5.7
2023-01-09T04:26:01.353Z,5.7
2023-01-09T04:26:36.963Z,5.5
2023-01-09T04:27:37.020Z,5.5
2023-01-09T04:29:04.981Z,5.6
2023-01-09T04:29:37.164Z,5.7
2023-01-09T04:31:28.859Z,5.6
2023-01-09T04:31:37.348Z,5.6
2023-01-09T04:32:37.371Z,5.6
2023-01-09T04:33:37.438Z,5.6
2023-01-09T04:34:37.447Z,5.6
2023-01-09T04:35:37.597Z,5.6
2023-01-09T04:36:37.578Z,5.6
2023-01-09T04:37:47.430Z,5.6
2023-01-09T04:38:37.709Z,5.6
2023-01-09T04:39:45.849Z,5.6
2023-01-09T04:40:56.433Z,5.6
2023-01-09T04:41:57.398Z,5.5
2023-01-09T04:42:37.928Z,5.6
2023-01-09T04:43:47.310Z,5.7
2023-01-09T04:44:38.228Z,5.7
2023-01-09T04:45:44.769Z,5.5
2023-01-09T04:46:59.385Z,5.5
2023-01-09T04:47:48.393Z,5.6
2023-01-09T04:48:38.332Z,5.5
2023-01-09T04:50:25.787Z,5.5
2023-01-09T04:50:38.421Z,5.6
2023-01-09T04:52:03.277Z,5.6
2023-01-09T04:52:59.885Z,5.6
2023-01-09T04:53:55.250Z,5.5
2023-01-09T04:54:38.719Z,5.5
2023-01-09T04:55:55.973Z,5.4
2023-01-09T04:56:38.856Z,5.6
2023-01-09T04:57:38.882Z,5.5
2023-01-09T04:58:56.771Z,5.5
2023-01-09T04:59:39.029Z,5.6
2023-01-09T05:00:39.155Z,5.6
2023-01-09T05:02:10.070Z,5.6
2023-01-09T05:02:39.226Z,5.6
2023-01-09T05:03:39.257Z,5.6
2023-01-09T05:05:06.483Z,5.8
2023-01-09T05:05:39.405Z,5.9
2023-01-09T05:06:39.482Z,5.7
2023-01-09T05:08:06.481Z,5.6
2023-01-09T05:08:39.585Z,5.5
2023-01-09T05:09:39.689Z,5.5
2023-01-09T05:11:06.091Z,5.5
2023-01-09T05:11:39.830Z,5.6
2023-01-09T05:12:39.907Z,5.6
2023-01-09T05:14:05.980Z,5.6
2023-01-09T05:14:40.047Z,5.6
2023-01-09T05:15:40.085Z,5.6
2023-01-09T05:17:07.221Z,5.6
2023-01-09T05:17:40.288Z,5.6
2023-01-09T05:18:40.321Z,5.6
2023-01-09T05:20:05.779Z,5.6
2023-01-09T05:20:40.501Z,5.5
2023-01-09T05:21:40.585Z,5.6
2023-01-09T05:23:06.502Z,5.6
2023-01-09T05:23:40.723Z,5.6
2023-01-09T05:24:40.772Z,5.6
2023-01-09T05:26:07.040Z,5.7
2023-01-09T05:26:40.911Z,5.8
2023-01-09T05:27:40.948Z,5.8
2023-01-09T05:29:05.798Z,5.8
2023-01-09T05:29:41.162Z,5.7
2023-01-09T05:30:41.165Z,5.6
2023-01-09T05:31:43.355Z,5.6
2023-01-09T05:32:45.570Z,5.7
2023-01-09T05:33:41.399Z,5.8
2023-01-09T05:34:49.163Z,5.7
2023-01-09T05:35:41.537Z,5.7
2023-01-09T05:36:48.207Z,5.7
2023-01-09T05:37:41.681Z,5.7
2023-01-09T05:38:48.781Z,5.7
2023-01-09T05:39:41.850Z,5.7
2023-01-09T05:40:48.587Z,5.7
2023-01-09T05:41:41.961Z,5.7
2023-01-09T05:42:48.722Z,5.7
2023-01-09T05:43:42.107Z,5.8
2023-01-09T05:44:48.979Z,5.8
2023-01-09T05:45:42.226Z,5.9
2023-01-09T05:46:53.084Z,5.8
2023-01-09T05:48:28.044Z,5.8
2023-01-09T05:48:56.665Z,5.8
2023-01-09T05:49:42.408Z,5.6
2023-01-09T05:50:53.687Z,5.7
2023-01-09T05:51:42.532Z,5.7
2023-01-09T05:52:57.458Z,5.7
2023-01-09T05:53:59.656Z,5.7
2023-01-09T05:55:14.639Z,5.8
2023-01-09T05:56:31.442Z,5.8
2023-01-09T05:57:44.627Z,5.8
2023-01-09T05:59:31.940Z,5.7
2023-01-09T06:00:14.646Z,5.7
2023-01-09T06:01:17.804Z,5.7
2023-01-09T06:02:30.293Z,5.7
2023-01-09T06:03:17.891Z,5.7
2023-01-09T06:04:17.882Z,5.7
2023-01-09T06:05:30.644Z,5.6
2023-01-09T06:06:17.990Z,5.6
2023-01-09T06:07:21.103Z,5.7
2023-01-09T06:08:30.786Z,5.7
2023-01-09T06:09:18.227Z,5.8
2023-01-09T06:10:18.356Z,5.8
2023-01-09T06:11:32.456Z,5.8
2023-01-09T06:12:18.350Z,5.8
2023-01-09T06:13:18.443Z,5.8
2023-01-09T06:14:37.147Z,5.8
2023-01-09T06:15:18.534Z,5.9
2023-01-09T06:16:18.636Z,5.9
2023-01-09T06:17:36.715Z,5.8
2023-01-09T06:18:18.687Z,5.9
2023-01-09T06:19:18.757Z,5.9
2023-01-09T06:20:33.788Z,5.8
2023-01-09T06:21:18.910Z,5.8
2023-01-09T06:22:18.932Z,5.8
2023-01-09T06:23:36.831Z,5.8
2023-01-09T06:24:19.065Z,5.8
2023-01-09T06:25:19.155Z,5.9
2023-01-09T06:26:38.576Z,5.8
2023-01-09T06:27:19.202Z,5.9
2023-01-09T06:28:19.213Z,5.9
2023-01-09T06:29:36.554Z,6
2023-01-09T06:30:19.318Z,5.9
2023-01-09T06:31:29.532Z,5.9
2023-01-09T06:32:24.271Z,5.9
2023-01-09T06:33:19.558Z,5.9
2023-01-09T06:34:19.582Z,5.9
2023-01-09T06:35:36.375Z,5.9
2023-01-09T06:36:22.216Z,5.9
2023-01-09T06:37:19.759Z,5.9
2023-01-09T06:38:38.439Z,6
2023-01-09T06:39:19.900Z,5.9
2023-01-09T06:40:19.997Z,5.9
2023-01-09T06:41:37.291Z,6
2023-01-09T06:42:20.144Z,5.9
2023-01-09T06:43:20.209Z,5.9
2023-01-09T06:44:38.649Z,5.9
2023-01-09T06:45:20.490Z,5.9
2023-01-09T06:46:20.429Z,5.9
2023-01-09T06:47:36.552Z,5.9
2023-01-09T06:48:20.576Z,5.9
2023-01-09T06:49:20.650Z,5.9
2023-01-09T06:50:37.587Z,5.9
2023-01-09T06:51:20.742Z,5.9
2023-01-09T06:52:20.845Z,5.9
2023-01-09T06:53:37.583Z,5.8
2023-01-09T06:54:20.963Z,5.9
2023-01-09T06:55:21.035Z,5.9
2023-01-09T06:56:38.742Z,6
2023-01-09T06:57:21.138Z,5.9
2023-01-09T06:58:21.169Z,5.8
2023-01-09T06:59:38.357Z,5.9
2023-01-09T07:00:21.311Z,6
2023-01-09T07:01:21.480Z,5.9
2023-01-09T07:02:38.865Z,5.8
2023-01-09T07:03:21.476Z,5.9
2023-01-09T07:04:21.631Z,5.9
2023-01-09T07:05:36.594Z,5.9
2023-01-09T07:06:21.640Z,5.9
2023-01-09T07:07:21.709Z,5.8
2023-01-09T07:08:38.726Z,5.8
2023-01-09T07:09:21.787Z,5.8
2023-01-09T07:10:21.890Z,5.9
2023-01-09T07:11:37.281Z,6
2023-01-09T07:12:21.979Z,5.9
2023-01-09T07:13:22.046Z,5.9
2023-01-09T07:14:39.205Z,5.9
2023-01-09T07:15:22.196Z,5.8
2023-01-09T07:16:22.310Z,5.9
2023-01-09T07:17:39.300Z,5.8
2023-01-09T07:18:22.335Z,5.9
2023-01-09T07:19:22.412Z,5.9
2023-01-09T07:20:40.750Z,5.9
2023-01-09T07:21:22.551Z,6
2023-01-09T07:22:22.651Z,6
2023-01-09T07:23:37.959Z,6
2023-01-09T07:24:22.757Z,6
2023-01-09T07:25:22.794Z,6
2023-01-09T07:26:38.810Z,6
2023-01-09T07:27:22.953Z,6
2023-01-09T07:28:22.991Z,6
2023-01-09T07:29:37.804Z,6
2023-01-09T07:30:23.153Z,6
2023-01-09T07:31:31.084Z,6
2023-01-09T07:32:40.373Z,6
2023-01-09T07:33:23.356Z,6
2023-01-09T07:34:23.415Z,6
2023-01-09T07:35:38.892Z,6
2023-01-09T07:36:23.580Z,5.9
2023-01-09T07:37:23.620Z,6
2023-01-09T07:38:39.418Z,6
2023-01-09T07:39:23.780Z,6
2023-01-09T07:40:23.843Z,5.9
2023-01-09T07:41:39.685Z,5.9
2023-01-09T07:42:23.986Z,6
2023-01-09T07:43:24.100Z,6
2023-01-09T07:44:40.527Z,6
2023-01-09T07:45:24.302Z,6
2023-01-09T07:46:24.395Z,5.9
2023-01-09T07:47:38.608Z,6
2023-01-09T07:48:24.407Z,6
2023-01-09T07:49:26.704Z,6
2023-01-09T07:50:44.294Z,6
2023-01-09T07:51:24.621Z,6.1
2023-01-09T07:52:24.714Z,6.1
2023-01-09T07:53:41.977Z,6.1
2023-01-09T07:54:24.841Z,6.1
2023-01-09T07:55:24.924Z,6.1
2023-01-09T07:56:41.729Z,6.1
2023-01-09T07:57:25.048Z,6.2
2023-01-09T07:58:25.106Z,6.2
2023-01-09T07:59:39.743Z,6.2
2023-01-09T08:00:25.295Z,6.3
2023-01-09T08:01:25.459Z,6.2
2023-01-09T08:02:43.297Z,6.2
2023-01-09T08:03:25.494Z,6.2
2023-01-09T08:04:25.550Z,6.2
2023-01-09T08:05:42.510Z,6.2
2023-01-09T08:06:25.700Z,6.2
2023-01-09T08:07:25.846Z,6.2
2023-01-09T08:08:42.522Z,6.3
2023-01-09T08:09:25.869Z,6.3
2023-01-09T08:10:25.881Z,6.4
2023-01-09T08:11:40.751Z,6.5
2023-01-09T08:12:25.986Z,6.6
2023-01-09T08:13:26.062Z,6.6
2023-01-09T08:14:41.326Z,6.5
2023-01-09T09:21:54.753Z,6.7
2023-01-09T09:23:18.141Z,6.7
2023-01-09T09:23:54.341Z,6.7
2023-01-09T09:25:16.832Z,6.7
2023-01-09T09:25:54.486Z,6.7
2023-01-09T09:26:55.323Z,6.7
2023-01-09T09:27:54.685Z,6.7
2023-01-09T09:28:54.822Z,6.7
2023-01-09T09:29:57.051Z,6.8
2023-01-09T09:30:54.886Z,6.8
2023-01-09T09:31:54.872Z,6.8
2023-01-09T09:32:57.397Z,6.8
2023-01-09T09:33:55.058Z,6.8
2023-01-09T09:34:55.115Z,6.8
2023-01-09T09:35:55.175Z,6.8
2023-01-09T09:36:55.320Z,6.8
2023-01-09T09:37:55.413Z,6.8
2023-01-09T09:39:02.632Z,6.8
2023-01-09T09:39:55.957Z,6.8
2023-01-09T09:40:55.546Z,6.8
2023-01-09T09:41:59.238Z,6.8
2023-01-09T09:42:55.723Z,6.8
2023-01-09T09:43:56.434Z,6.8
2023-01-09T09:45:00.446Z,6.8
2023-01-09T09:45:55.958Z,6.8
2023-01-09T09:46:56.071Z,6.9
2023-01-09T09:48:03.250Z,6.9
2023-01-09T09:48:56.192Z,6.9
2023-01-09T09:49:57.716Z,6.9
2023-01-09T09:51:24.807Z,6.9
2023-01-09T09:52:56.665Z,6.9
2023-01-09T10:22:49.832Z,7
2023-01-09T11:29:30.234Z,7.2
2023-01-09T11:30:53.186Z,7.2
2023-01-09T11:48:07.662Z,7.2
2023-01-09T14:15:21.161Z,7.1
2023-01-09T14:16:41.695Z,7.1
2023-01-09T14:17:21.190Z,7.1
2023-01-09T14:18:21.251Z,7.1
2023-01-09T14:19:43.694Z,7.2
2023-01-09T14:20:21.355Z,7.2
2023-01-09T14:21:21.477Z,7.1
2023-01-09T14:22:56.331Z,7
2023-01-09T14:23:35.578Z,7.1
2023-01-09T14:24:21.565Z,7
2023-01-09T14:26:12.046Z,7
2023-01-09T14:26:21.652Z,7
2023-01-09T14:27:21.725Z,7
2023-01-09T14:28:24.056Z,6.9
2023-01-09T14:29:21.825Z,6.9
2023-01-09T14:30:21.873Z,7
2023-01-09T14:31:45.784Z,7
2023-01-09T14:32:21.967Z,7.6
2023-01-09T14:33:22.052Z,8
2023-01-09T14:34:51.695Z,8.1
2023-01-09T14:35:22.131Z,8.1
2023-01-09T14:36:22.182Z,7.9
2023-01-09T14:37:47.364Z,7.5
2023-01-09T14:38:24.769Z,7.3
2023-01-09T14:39:22.354Z,7.2
2023-01-09T14:40:47.351Z,7.1
2023-01-09T14:41:22.464Z,7
2023-01-09T14:42:22.525Z,7.1
2023-01-09T14:43:46.368Z,7.1
2023-01-09T14:45:50.021Z,7
2023-01-09T14:46:22.754Z,7
2023-01-09T14:47:23.010Z,7
2023-01-09T14:48:22.892Z,6.9
2023-01-09T14:49:22.930Z,7
2023-01-09T14:50:22.996Z,7
2023-01-09T14:51:23.287Z,6.9
2023-01-09T14:52:43.417Z,7
2023-01-09T14:53:23.153Z,7.6
2023-01-09T14:54:23.283Z,8.2
2023-01-09T14:55:23.302Z,8.2
2023-01-09T14:56:23.409Z,7.8
2023-01-09T14:57:23.341Z,7.4
2023-01-09T14:58:47.497Z,7.2
2023-01-09T14:59:23.819Z,7
2023-01-09T15:00:23.521Z,7.1
2023-01-09T15:01:23.701Z,7
2023-01-09T15:02:23.654Z,7
2023-01-09T15:03:23.775Z,7
2023-01-09T15:04:46.991Z,6.9
2023-01-09T15:05:23.805Z,6.9
2023-01-09T15:06:23.846Z,6.9
2023-01-09T15:07:23.929Z,6.9
2023-01-09T15:08:24.006Z,6.9
2023-01-09T15:09:24.051Z,6.8
2023-01-09T15:10:45.277Z,6.9
2023-01-09T15:11:24.108Z,6.9
2023-01-09T15:12:24.249Z,6.9
2023-01-09T15:13:24.204Z,7
2023-01-09T15:14:24.300Z,7
2023-01-09T15:15:24.328Z,7.1
2023-01-09T15:16:54.234Z,6.9
2023-01-09T15:17:24.411Z,6.9
2023-01-09T15:18:24.773Z,6.8
2023-01-09T15:19:24.541Z,6.9
2023-01-09T15:20:24.918Z,6.9
2023-01-09T15:21:24.624Z,6.9
2023-01-09T15:22:47.972Z,6.9
2023-01-09T15:23:24.711Z,7
2023-01-09T15:24:25.042Z,6.9
2023-01-09T15:25:30.503Z,6.8
2023-01-09T15:26:24.888Z,6.8
2023-01-09T15:27:24.920Z,6.8
2023-01-09T15:28:41.222Z,6.9
2023-01-09T15:29:28.629Z,7
2023-01-09T15:30:28.272Z,6.9
2023-01-09T15:31:25.243Z,6.9
2023-01-09T15:32:28.092Z,6.8
2023-01-09T15:33:25.320Z,6.9
2023-01-09T15:34:45.803Z,6.9
2023-01-09T15:35:25.400Z,6.9
2023-01-09T15:36:45.199Z,6.9
2023-01-09T15:37:26.024Z,6.9
2023-01-09T15:38:26.872Z,7
2023-01-09T15:39:25.679Z,6.9
2023-01-09T15:40:27.071Z,6.8
2023-01-09T15:41:25.797Z,6.8
2023-01-09T15:42:25.839Z,6.8
2023-01-09T15:43:30.925Z,6.7
2023-01-09T15:44:51.119Z,6.7
2023-01-09T15:45:31.840Z,6.8
2023-01-09T15:46:48.405Z,6.7
2023-01-09T15:47:26.118Z,6.7
2023-01-09T15:48:26.152Z,6.7
2023-01-09T15:49:46.681Z,6.6
2023-01-09T15:50:26.292Z,6.6
2023-01-09T15:51:26.328Z,6.6
2023-01-09T15:52:32.748Z,6.6
2023-01-09T15:53:26.414Z,6.6
2023-01-09T15:54:26.485Z,6.7
2023-01-09T15:55:44.971Z,6.7
2023-01-09T15:56:26.571Z,6.7
2023-01-09T15:57:26.693Z,6.7
2023-01-09T15:58:50.846Z,6.6
2023-01-09T15:59:27.341Z,6.6
2023-01-09T16:00:27.204Z,6.6
2023-01-09T16:01:50.511Z,6.6
2023-01-09T16:02:27.544Z,6.6
2023-01-09T16:03:27.106Z,6.6
2023-01-09T16:04:53.386Z,6.6
2023-01-09T16:05:27.164Z,6.6
2023-01-09T16:06:27.192Z,6.6
2023-01-09T16:07:27.380Z,6.5
2023-01-09T16:08:27.296Z,6.5
2023-01-09T16:09:27.401Z,6.5
2023-01-09T16:10:57.974Z,6.5
2023-01-09T16:11:27.435Z,6.5
2023-01-09T16:12:27.498Z,6.5
2023-01-09T16:13:28.086Z,6.5
2023-01-09T16:14:27.593Z,6.5
2023-01-09T16:15:59.020Z,6.5
2023-01-09T16:17:09.998Z,6.5
2023-01-09T16:18:02.965Z,6.5
2023-01-09T16:19:01.080Z,6.4
2023-01-09T16:20:10.235Z,6.4
2023-01-09T16:21:01.187Z,6.3
2023-01-09T16:22:01.275Z,6.3
2023-01-09T16:23:13.393Z,6.3
2023-01-09T16:24:01.333Z,6.3
2023-01-09T16:25:01.408Z,6.2
2023-01-09T16:26:20.758Z,6.1
2023-01-09T16:27:01.506Z,6
2023-01-09T16:28:01.599Z,6
2023-01-09T16:29:12.241Z,6
2023-01-09T16:30:01.704Z,6.1
2023-01-09T16:31:01.787Z,6
2023-01-09T16:32:24.952Z,6
2023-01-09T16:33:01.829Z,6
2023-01-09T16:34:01.914Z,5.9
2023-01-09T16:35:18.624Z,6
2023-01-09T16:36:04.159Z,6
2023-01-09T16:37:02.148Z,6
2023-01-09T16:38:19.977Z,6
2023-01-09T16:39:02.209Z,6.1
2023-01-09T16:40:02.266Z,6.1
2023-01-09T16:41:21.051Z,6
2023-01-09T16:42:02.361Z,5.9
2023-01-09T16:43:03.249Z,6
2023-01-09T17:44:53.758Z,5.9
2023-01-09T17:45:41.957Z,5.9
2023-01-09T17:46:41.945Z,5.8
2023-01-09T17:47:52.826Z,5.8
2023-01-09T17:48:42.019Z,5.8
2023-01-09T17:49:42.079Z,5.8
2023-01-09T17:50:54.708Z,5.9
2023-01-09T17:51:42.158Z,5.9
2023-01-09T17:52:42.207Z,5.9
2023-01-09T17:53:56.474Z,5.8
2023-01-09T17:54:42.294Z,5.9
2023-01-09T17:55:42.338Z,5.9
2023-01-09T17:56:42.389Z,5.9
2023-01-09T17:57:42.451Z,5.9
2023-01-09T17:58:42.493Z,5.9
2023-01-09T17:59:58.933Z,5.9
2023-01-09T18:00:42.677Z,5.9
2023-01-09T18:01:42.816Z,5.9
2023-01-09T18:03:01.696Z,5.9
2023-01-09T18:03:42.827Z,5.9
2023-01-09T18:04:42.895Z,5.9
2023-01-09T18:05:59.186Z,5.9
2023-01-09T18:06:43.009Z,5.9
2023-01-09T18:07:43.148Z,5.9
2023-01-09T18:09:01.653Z,5.9
2023-01-09T18:09:43.204Z,6
2023-01-09T18:10:43.267Z,6
2023-01-09T18:12:01.439Z,6
2023-01-09T18:12:43.426Z,6
2023-01-09T18:13:43.429Z,5.9
2023-01-09T18:15:05.841Z,5.9
2023-01-09T18:15:43.578Z,5.9
2023-01-09T18:16:43.666Z,5.9
2023-01-09T18:18:18.683Z,5.9
2023-01-09T18:18:43.734Z,5.8
2023-01-09T18:19:43.804Z,5.8
2023-01-09T18:21:06.349Z,5.9
2023-01-09T18:21:43.955Z,5.9
2023-01-09T18:22:43.975Z,5.8
2023-01-09T18:24:03.033Z,5.8
2023-01-09T18:24:44.109Z,5.8
2023-01-09T18:25:44.216Z,5.8
2023-01-09T18:27:18.459Z,5.9
2023-01-09T18:27:44.292Z,6
2023-01-09T18:28:44.377Z,6
2023-01-09T18:30:10.134Z,6.1
2023-01-09T18:30:44.508Z,6
2023-01-09T18:31:44.593Z,6
2023-01-09T18:33:12.450Z,6
2023-01-09T18:33:44.721Z,6
2023-01-09T18:34:44.735Z,5.9
2023-01-09T18:35:59.727Z,5.9
2023-01-09T18:36:47.427Z,5.9
2023-01-09T18:37:44.962Z,6
2023-01-09T18:39:14.940Z,6
2023-01-09T18:40:45.278Z,5.9
2023-01-09T18:42:11.621Z,5.9
2023-01-09T18:42:45.276Z,5.9
2023-01-09T18:43:45.332Z,5.9
2023-01-09T18:45:18.486Z,5.8
2023-01-09T18:45:45.612Z,5.9
2023-01-09T18:46:49.246Z,5.9
2023-01-09T18:47:51.674Z,5.8
2023-01-09T18:48:45.637Z,5.9
2023-01-09T18:49:45.741Z,5.9
2023-01-09T18:51:16.783Z,5.9
2023-01-09T18:51:45.761Z,5.9
2023-01-09T18:52:45.798Z,5.9
2023-01-09T18:54:15.149Z,5.8
2023-01-09T18:54:45.881Z,5.8
2023-01-09T18:55:45.997Z,5.9
2023-01-09T18:56:53.718Z,5.9
2023-01-09T18:57:46.045Z,5.9
2023-01-09T18:58:46.045Z,6
2023-01-09T19:00:16.482Z,6
2023-01-09T19:00:46.304Z,6
2023-01-09T19:01:46.220Z,5.9
2023-01-09T19:03:21.551Z,6
2023-01-09T19:03:46.344Z,6
2023-01-09T19:04:46.330Z,5.9
2023-01-09T19:06:21.819Z,5.9
2023-01-09T19:06:48.653Z,5.9
2023-01-09T19:07:46.485Z,5.9
2023-01-09T19:08:46.589Z,6
2023-01-09T19:09:46.617Z,6
2023-01-09T19:10:46.621Z,6.1
2023-01-09T19:11:46.912Z,6.1
2023-01-09T19:12:46.890Z,6.1
2023-01-09T19:13:46.831Z,6
2023-01-09T19:14:47.297Z,6
2023-01-09T19:15:46.899Z,5.9
2023-01-09T19:16:47.625Z,5.9
2023-01-09T19:17:47.052Z,5.9
2023-01-09T19:18:49.779Z,5.9
2023-01-09T19:19:47.007Z,5.9
2023-01-09T19:20:50.459Z,5.9
2023-01-09T19:21:47.135Z,6
2023-01-09T19:22:50.428Z,5.9
2023-01-09T19:23:47.278Z,6
2023-01-09T19:24:51.427Z,5.9
2023-01-09T19:25:47.366Z,5.9
2023-01-09T19:27:01.009Z,5.9
2023-01-09T19:27:51.154Z,5.9
2023-01-09T19:28:52.824Z,6
2023-01-09T19:29:50.978Z,6.1
2023-01-09T19:30:55.452Z,6.1
2023-01-09T19:31:51.119Z,6.2
2023-01-09T19:32:53.090Z,6.1
2023-01-09T19:33:50.967Z,6.1
2023-01-09T19:34:54.094Z,6
2023-01-09T19:35:50.939Z,6
2023-01-09T19:36:55.740Z,6
2023-01-09T19:37:51.947Z,6
2023-01-09T19:38:54.626Z,6.1
2023-01-09T19:39:51.132Z,6
2023-01-09T19:40:58.000Z,6
2023-01-09T19:41:51.069Z,6.1
2023-01-09T19:42:58.424Z,6.1
2023-01-09T19:43:51.697Z,5.9
2023-01-09T19:44:58.327Z,5.8
2023-01-09T19:48:58.780Z,6
2023-01-09T19:49:48.578Z,6.1
2023-01-09T19:50:58.419Z,5.9
2023-01-09T19:51:48.764Z,5.8
2023-01-09T19:53:01.056Z,5.8
2023-01-09T19:53:48.822Z,5.8
2023-01-09T19:54:58.719Z,5.8
2023-01-09T19:55:49.010Z,5.7
2023-01-09T19:56:58.231Z,5.7
2023-01-09T19:57:48.916Z,5.7
2023-01-09T19:58:59.073Z,5.7
2023-01-09T19:59:49.125Z,5.8
2023-01-09T20:01:02.825Z,5.9
2023-01-09T20:01:49.219Z,5.9
2023-01-09T20:03:01.722Z,5.8
2023-01-09T20:03:49.858Z,5.8
2023-01-09T20:05:04.137Z,5.8
2023-01-09T20:05:49.337Z,5.8
2023-01-09T20:07:07.093Z,5.8
2023-01-09T20:07:49.690Z,5.8
2023-01-09T20:09:07.970Z,5.8
2023-01-09T20:09:49.521Z,5.8
2023-01-09T20:11:08.285Z,5.8
2023-01-09T20:11:49.529Z,5.9
2023-01-09T20:12:58.517Z,5.9
2023-01-09T20:13:49.710Z,5.9
2023-01-09T20:15:20.983Z,5.9
2023-01-09T20:16:24.447Z,5.8
2023-01-09T20:17:39.410Z,5.8
2023-01-09T20:18:59.909Z,5.8
2023-01-09T20:20:09.526Z,5.9
2023-01-09T20:21:34.400Z,5.9
2023-01-09T20:22:39.479Z,5.9
2023-01-09T20:23:54.497Z,5.8
2023-01-09T20:25:12.383Z,5.8
2023-01-09T20:26:24.504Z,5.9
2023-01-09T20:27:53.825Z,5.9
2023-01-09T20:28:54.472Z,5.9
2023-01-09T20:30:09.423Z,6
2023-01-09T20:31:43.344Z,5.9
2023-01-09T20:32:21.497Z,5.9
2023-01-09T20:33:44.327Z,5.9
2023-01-09T20:34:22.080Z,5.9
2023-01-09T20:35:41.976Z,5.9